Time;durP1;ratioP1;P1;durP2;ratioP2;P2;SDS_P1;SDS_P2;PMS_P1;PMS_P2;Temp;Humidity;BMP_temperature;BMP_pressure;BME280_temperature;BME280_humidity;BME280_pressure;Samples;Min_cycle;Max_cycle;Signal;HPM_P1;HPM_P2
2021/08/11 00:01:27;;;;;;;;;;;;;;;;;;;;;
2021/08/11 00:18:20;;;;;;;;;;;;;;;;;;;;;
2021/08/11 00:31:20;;;;;;;;;;;;;;;;;;;;;
2021/08/11 00:34:17;;;;;;;;;;;;;;;;;;;;;
2021/08/11 00:37:39;;;;;;;;;;;;;;;;;;;;;
2021/08/11 00:47:35;;;;;;;;;;;;;;;;;;;;;
2021/08/11 00:53:37;;;;;;;;;;;;;;;;;;;;;
2021/08/11 00:56:57;;;;;;;;;;;;;;;;;;;;;
2021/08/11 00:59:58;;;;;;;6.93;4.30;;;24.00;57.10;;;;;;6287064;22;20388;-87
2021/08/11 01:03:26;;;;;;;;;;;;;;;;;;;;;
2021/08/11 01:12:39;;;;;;;4.97;4.20;;;24.00;57.30;;;;;;6285836;22;20383;-89
2021/08/11 01:15:59;;;;;;;6.10;4.27;;;24.00;57.30;;;;;;6290336;22;20485;-89
2021/08/11 01:18:57;;;;;;;;;;;;;;;;;;;;;
2021/08/11 01:22:22;;;;;;;;;;;;;;;;;;;;;
2021/08/11 01:25:37;;;;;;;;;;;;;;;;;;;;;
2021/08/11 01:36:40;;;;;;;;;;;;;;;;;;;;;
2021/08/11 01:42:30;;;;;;;4.70;3.67;;;23.80;57.30;;;;;;5931192;24;20382;-94
2021/08/11 01:45:46;;;;;;;;;;;;;;;;;;;;;
2021/08/11 01:52:00;;;;;;;;;;;;;;;;;;;;;
2021/08/11 01:58:19;;;;;;;4.70;3.60;;;23.80;57.40;;;;;;5886906;24;20456;-94
2021/08/11 02:01:50;;;;;;;;;;;;;;;;;;;;;
2021/08/11 02:04:59;;;;;;;4.83;3.90;;;23.80;57.30;;;;;;5943171;24;20386;-94
2021/08/11 02:07:51;;;;;;;;;;;;;;;;;;;;;
2021/08/11 02:10:53;;;;;;;4.80;3.90;;;23.80;57.30;;;;;;6199276;23;20399;-94
2021/08/11 02:13:58;;;;;;;;;;;;;;;;;;;;;
2021/08/11 02:16:49;;;;;;;;;;;;;;;;;;;;;
2021/08/11 02:19:43;;;;;;;;;;;;;;;;;;;;;
2021/08/11 02:22:55;;;;;;;4.60;4.07;;;23.60;57.40;;;;;;6261948;22;20388;-89
2021/08/11 02:25:58;;;;;;;4.57;4.00;;;23.60;57.40;;;;;;6148562;23;20398;-89
2021/08/11 02:29:12;;;;;;;;;;;;;;;;;;;;;
2021/08/11 02:32:38;;;;;;;4.33;3.80;;;23.70;57.20;;;;;;6258849;22;20383;-90
2021/08/11 02:35:24;;;;;;;4.83;4.40;;;23.70;57.30;;;;;;6133037;23;20379;-90
2021/08/11 02:38:59;;;;;;;;;;;;;;;;;;;;;
2021/08/11 02:42:16;;;;;;;5.27;4.33;;;23.60;57.20;;;;;;6054034;23;20380;-90
2021/08/11 02:48:21;;;;;;;5.37;3.60;;;23.60;57.30;;;;;;6187793;23;20433;-90
2021/08/11 02:51:19;;;;;;;;;;;;;;;;;;;;;
2021/08/11 02:54:00;;;;;;;5.47;4.07;;;23.60;57.30;;;;;;6191076;23;20413;-90
2021/08/11 02:57:30;;;;;;;6.67;4.40;;;23.60;57.40;;;;;;6174273;23;20388;-90
2021/08/11 03:03:36;;;;;;;;;;;;;;;;;;;;;
2021/08/11 03:10:02;;;;;;;;;;;;;;;;;;;;;
2021/08/11 03:12:58;;;;;;;4.77;3.70;;;23.50;57.30;;;;;;6159984;23;20396;-89
2021/08/11 03:15:38;;;;;;;6.90;3.97;;;23.50;57.30;;;;;;6135390;23;20601;-89
2021/08/11 03:21:47;;;;;;;;;;;;;;;;;;;;;
2021/08/11 03:24:21;;;;;;;;;;;;;;;;;;;;;
2021/08/11 03:27:25;;;;;;;;;;;;;;;;;;;;;
2021/08/11 03:29:57;;;;;;;4.63;3.93;;;23.50;57.20;;;;;;6172003;23;20395;-89
2021/08/11 03:35:55;;;;;;;;;;;;;;;;;;;;;
2021/08/11 03:39:14;;;;;;;;;;;;;;;;;;;;;
2021/08/11 03:42:08;;;;;;;5.10;4.53;;;23.50;57.20;;;;;;6294328;22;20344;-89
2021/08/11 03:44:44;;;;;;;4.10;3.70;;;23.50;57.40;;;;;;6292530;22;20380;-90
2021/08/11 03:47:40;;;;;;;;;;;;;;;;;;;;;
2021/08/11 03:50:27;;;;;;;;;;;;;;;;;;;;;
2021/08/11 03:53:26;;;;;;;;;;;;;;;;;;;;;
2021/08/11 03:56:36;;;;;;;4.67;4.20;;;23.60;57.00;;;;;;6293437;22;20729;-90
2021/08/11 03:59:38;;;;;;;;;;;;;;;;;;;;;
2021/08/11 04:02:13;;;;;;;5.63;4.37;;;23.60;57.00;;;;;;6292709;22;20680;-90
2021/08/11 04:05:14;;;;;;;5.23;4.33;;;23.50;57.00;;;;;;6290447;22;20395;-90
2021/08/11 04:08:08;;;;;;;5.33;3.50;;;23.60;57.00;;;;;;6291117;22;20487;-90
2021/08/11 04:10:56;;;;;;;;;;;;;;;;;;;;;
2021/08/11 04:13:55;;;;;;;4.40;4.00;;;23.60;56.80;;;;;;6293728;22;20357;-90
2021/08/11 04:23:29;;;;;;;;;;;;;;;;;;;;;
2021/08/11 04:30:17;;;;;;;;;;;;;;;;;;;;;
2021/08/11 04:39:57;;;;;;;5.17;4.70;;;23.50;56.80;;;;;;6225418;23;20362;-90
2021/08/11 04:46:29;;;;;;;;;;;;;;;;;;;;;
2021/08/11 04:49:34;;;;;;;4.50;4.10;;;23.50;56.80;;;;;;6228265;23;20433;-90
2021/08/11 04:55:59;;;;;;;5.53;3.80;;;23.50;56.90;;;;;;6207586;23;20370;-90
2021/08/11 05:02:11;;;;;;;;;;;;;;;;;;;;;
2021/08/11 05:08:04;;;;;;;5.30;4.03;;;23.60;56.70;;;;;;6287619;22;20416;-90
2021/08/11 05:11:08;;;;;;;;;;;;;;;;;;;;;
2021/08/11 05:13:57;;;;;;;4.80;3.73;;;23.60;56.50;;;;;;6291498;22;20395;-90
2021/08/11 05:16:37;;;;;;;7.13;4.40;;;23.70;56.50;;;;;;6267912;22;20401;-90
2021/08/11 05:19:36;;;;;;;;;;;;;;;;;;;;;
2021/08/11 05:26:10;;;;;;;4.53;4.00;;;23.70;56.40;;;;;;6292055;22;20376;-90
2021/08/11 05:29:08;;;;;;;5.40;4.03;;;23.70;56.50;;;;;;6290050;22;20385;-90
2021/08/11 05:35:39;;;;;;;6.10;4.57;;;23.80;56.40;;;;;;6248874;22;20368;-89
2021/08/11 05:38:26;;;;;;;5.30;4.30;;;23.70;56.40;;;;;;6290277;22;20514;-90
2021/08/11 05:40:59;;;;;;;5.30;4.80;;;23.80;56.50;;;;;;6291362;22;20814;-89
2021/08/11 05:43:27;;;;;;;4.63;3.80;;;23.80;56.40;;;;;;6291918;22;20384;-89
2021/08/11 05:56:24;;;;;;;;;;;;;;;;;;;;;
2021/08/11 06:02:34;;;;;;;6.50;4.60;;;24.00;56.20;;;;;;6167292;23;20375;-87
2021/08/11 06:05:17;;;;;;;5.30;3.77;;;24.00;56.20;;;;;;6144931;23;20399;-87
2021/08/11 06:08:41;;;;;;;;;;;;;;;;;;;;;
2021/08/11 06:11:33;;;;;;;6.50;4.17;;;24.00;56.10;;;;;;6166608;23;20403;-87
2021/08/11 06:14:35;;;;;;;5.97;4.50;;;24.00;56.30;;;;;;6140072;23;20431;-87
2021/08/11 06:17:39;;;;;;;;;;;;;;;;;;;;;
2021/08/11 06:23:55;;;;;;;5.00;3.50;;;24.00;56.30;;;;;;6051170;23;20395;-87
2021/08/11 06:30:12;;;;;;;5.10;4.27;;;24.00;56.60;;;;;;6022396;23;20416;-87
2021/08/11 06:39:31;;;;;;;5.67;4.30;;;24.00;56.80;;;;;;6106145;23;20388;-87
2021/08/11 06:42:10;;;;;;;5.27;4.77;;;23.90;56.80;;;;;;6107430;23;20416;-86
2021/08/11 06:44:44;;;;;;;4.83;4.33;;;24.00;57.00;;;;;;6107597;23;20381;-87
2021/08/11 06:53:51;;;;;;;;;;;;;;;;;;;;;
2021/08/11 06:57:17;;;;;;;;;;;;;;;;;;;;;
2021/08/11 07:10:42;;;;;;;4.37;3.70;;;24.10;56.60;;;;;;5979186;23;20374;-87
2021/08/11 07:18:15;;;;;;;;;;;;;;;;;;;;;
2021/08/11 07:24:20;;;;;;;4.40;4.00;;;24.30;56.30;;;;;;5996386;23;20388;-86
2021/08/11 07:34:03;;;;;;;4.80;3.70;;;24.40;56.30;;;;;;6179690;23;20886;-86
2021/08/11 07:36:32;;;;;;;3.77;3.33;;;24.40;56.30;;;;;;6198598;23;20378;-87
2021/08/11 07:39:05;;;;;;;4.80;3.80;;;24.40;56.30;;;;;;6233902;23;20413;-88
2021/08/11 07:41:31;;;;;;;6.93;3.50;;;24.50;56.40;;;;;;6234694;23;20398;-87
2021/08/11 07:43:59;;;;;;;5.03;4.07;;;24.50;56.30;;;;;;6235140;23;20386;-88
2021/08/11 07:46:28;;;;;;;5.20;3.90;;;24.60;56.30;;;;;;6209146;23;20390;-87
2021/08/11 07:48:59;;;;;;;4.17;3.47;;;24.60;56.20;;;;;;6233637;23;20386;-88
2021/08/11 07:51:28;;;;;;;4.13;3.70;;;24.60;56.20;;;;;;6233889;23;20362;-87
2021/08/11 07:54:08;;;;;;;;;;;;;;;;;;;;;
2021/08/11 07:56:37;;;;;;;6.90;3.70;;;24.60;56.20;;;;;;6234112;23;20354;-88
2021/08/11 07:59:05;;;;;;;4.17;3.40;;;24.60;56.10;;;;;;6233393;23;20417;-88
2021/08/11 08:01:32;;;;;;;3.90;3.40;;;24.60;56.10;;;;;;6234616;23;20386;-87
2021/08/11 08:03:58;;;;;;;3.57;3.27;;;24.70;56.10;;;;;;6235055;23;20382;-87
2021/08/11 08:06:30;;;;;;;3.80;3.33;;;24.70;56.10;;;;;;6286142;22;20389;-87
2021/08/11 08:08:59;;;;;;;4.10;3.40;;;24.70;56.10;;;;;;6298784;22;20384;-88
2021/08/11 08:11:29;;;;;;;4.00;3.00;;;24.80;56.10;;;;;;6297565;22;20380;-87
2021/08/11 08:13:55;;;;;;;4.83;3.60;;;24.80;56.10;;;;;;6297888;22;20487;-87
2021/08/11 08:16:26;;;;;;;4.13;3.73;;;24.80;56.10;;;;;;6297919;22;20381;-87
2021/08/11 08:18:53;;;;;;;3.40;2.63;;;24.80;56.10;;;;;;6297328;22;20879;-87
2021/08/11 08:21:22;;;;;;;3.53;3.23;;;24.80;56.10;;;;;;6296195;22;20411;-87
2021/08/11 08:23:52;;;;;;;5.73;3.20;;;24.80;56.10;;;;;;6299056;22;20373;-87
2021/08/11 08:26:36;;;;;;;4.97;3.43;;;24.80;56.10;;;;;;6296819;22;20376;-87
2021/08/11 08:29:08;;;;;;;4.73;3.93;;;24.80;56.10;;;;;;6296776;22;20372;-88
2021/08/11 08:31:38;;;;;;;4.23;3.30;;;24.80;56.10;;;;;;6296585;22;20369;-85
2021/08/11 08:34:08;;;;;;;3.53;3.23;;;24.80;56.10;;;;;;6295664;22;20384;-87
2021/08/11 08:36:44;;;;;;;3.80;3.37;;;24.80;56.10;;;;;;6294905;22;20411;-87
2021/08/11 08:39:13;;;;;;;4.80;3.70;;;24.90;56.10;;;;;;6297316;22;20380;-87
2021/08/11 08:41:50;;;;;;;3.30;3.00;;;24.90;56.10;;;;;;6297310;22;20431;-86
2021/08/11 08:44:53;;;;;;;5.20;3.57;;;24.90;56.10;;;;;;6296381;22;20380;-87
2021/08/11 08:47:28;;;;;;;3.60;3.30;;;24.90;56.10;;;;;;6297116;22;20426;-87
2021/08/11 08:50:01;;;;;;;3.37;3.07;;;24.90;56.20;;;;;;6297945;22;20348;-86
2021/08/11 08:52:52;;;;;;;5.47;3.30;;;24.90;56.20;;;;;;6299031;22;20348;-86
2021/08/11 08:55:21;;;;;;;7.07;3.60;;;24.90;56.20;;;;;;6297548;22;20381;-86
2021/08/11 08:58:42;;;;;;;;;;;;;;;;;;;;;
2021/08/11 09:01:10;;;;;;;4.30;3.30;;;24.90;56.10;;;;;;6279392;22;20380;-86
2021/08/11 09:03:52;;;;;;;4.23;3.33;;;24.90;56.20;;;;;;6297673;22;20442;-86
2021/08/11 09:06:24;;;;;;;3.70;3.13;;;24.90;56.20;;;;;;6296766;22;20376;-86
2021/08/11 09:09:11;;;;;;;3.47;3.17;;;24.90;56.20;;;;;;6296592;22;20407;-85
2021/08/11 09:11:45;;;;;;;3.80;3.40;;;24.90;56.20;;;;;;6296750;22;20375;-85
2021/08/11 09:14:38;;;;;;;;;;;;;;;;;;;;;
2021/08/11 09:17:39;;;;;;;5.03;3.00;;;24.90;56.20;;;;;;6297843;22;20344;-85
2021/08/11 09:24:09;;;;;;;;;;;;;;;;;;;;;
2021/08/11 09:30:09;;;;;;;6.20;3.30;;;24.90;56.30;;;;;;6174471;23;20400;-86
2021/08/11 09:36:42;;;;;;;4.37;3.03;;;24.90;56.30;;;;;;6274341;22;20399;-85
2021/08/11 09:39:31;;;;;;;3.70;3.40;;;24.80;56.30;;;;;;6291619;22;20371;-86
2021/08/11 09:42:48;;;;;;;;;;;;;;;;;;;;;
2021/08/11 09:45:19;;;;;;;;;;;;;;;;;;;;;
2021/08/11 09:48:29;;;;;;;3.90;3.13;;;24.80;56.30;;;;;;6292628;22;20432;-86
2021/08/11 09:51:11;;;;;;;2.90;2.60;;;24.80;56.30;;;;;;6170743;23;20368;-86
2021/08/11 09:53:47;;;;;;;4.60;3.30;;;24.80;56.30;;;;;;6144262;23;20456;-86
2021/08/11 09:56:16;;;;;;;4.47;3.20;;;24.80;56.30;;;;;;6146137;23;20379;-85
2021/08/11 10:02:49;;;;;;;;;;;;;;;;;;;;;
2021/08/11 10:05:43;;;;;;;4.50;2.93;;;24.80;56.30;;;;;;6047821;23;20406;-86
2021/08/11 10:08:34;;;;;;;3.60;2.97;;;24.80;56.30;;;;;;6129658;23;20442;-84
2021/08/11 10:11:01;;;;;;;3.63;3.20;;;24.80;56.40;;;;;;6147093;23;20474;-83
2021/08/11 10:13:42;;;;;;;3.50;2.87;;;24.80;56.40;;;;;;6122329;23;20925;-84
2021/08/11 10:16:09;;;;;;;4.63;2.80;;;24.80;56.40;;;;;;6172180;23;20384;-83
2021/08/11 10:18:39;;;;;;;2.77;2.50;;;24.80;56.40;;;;;;6172401;23;20403;-86
2021/08/11 10:21:56;;;;;;;3.53;3.10;;;24.80;56.30;;;;;;6146630;23;20820;-86
2021/08/11 10:24:32;;;;;;;;;;;;;;;;;;;;;
2021/08/11 10:26:59;;;;;;;6.07;3.07;;;24.80;56.40;;;;;;6171569;23;20449;-86
2021/08/11 10:39:11;;;;;;;3.93;2.57;;;24.80;56.40;;;;;;6117994;23;20402;-87
2021/08/11 10:41:38;;;;;;;3.27;2.97;;;24.90;56.40;;;;;;6116543;23;20394;-86
2021/08/11 11:12:42;;;;;;;3.27;2.20;;;24.90;56.70;;;;;;5855497;24;20391;-86
2021/08/11 11:22:48;;;;;;;;;;;;;;;;;;;;;
2021/08/11 11:39:53;;;;;;;;;;;;;;;;;;;;;
2021/08/11 11:45:50;;;;;;;3.20;2.80;;;24.90;56.70;;;;;;5965614;24;20409;-87
2021/08/11 11:51:26;;;;;;;4.90;2.90;;;24.90;56.60;;;;;;6011681;23;20389;-87
2021/08/11 11:54:06;;;;;;;3.10;2.80;;;25.00;56.70;;;;;;6087050;23;20382;-87
2021/08/11 11:56:44;;;;;;;;;;;;;;;;;;;;;
2021/08/11 11:59:14;;;;;;;3.23;2.90;;;25.00;56.60;;;;;;6086720;23;20378;-87
2021/08/11 12:02:04;;;;;;;4.33;3.43;;;25.00;56.60;;;;;;6084909;23;20383;-88
2021/08/11 12:04:54;;;;;;;;;;;;;;;;;;;;;
2021/08/11 12:11:23;;;;;;;;;;;;;;;;;;;;;
2021/08/11 12:21:21;;;;;;;;;;;;;;;;;;;;;
2021/08/11 12:27:28;;;;;;;;;;;;;;;;;;;;;
2021/08/11 12:58:10;;;;;;;13.53;9.63;;;24.90;56.80;;;;;;6030288;23;20371;-87
2021/08/11 13:00:58;;;;;;;13.03;8.27;;;24.90;56.80;;;;;;6008546;23;20419;-86
2021/08/11 13:04:16;;;;;;;;;;;;;;;;;;;;;
2021/08/11 13:07:46;;;;;;;;;;;;;;;;;;;;;
2021/08/11 13:14:36;;;;;;;;;;;;;;;;;;;;;
2021/08/11 13:18:03;;;;;;;;;;;;;;;;;;;;;
2021/08/11 13:20:51;;;;;;;14.53;8.30;;;24.90;56.90;;;;;;6013163;23;20460;-87
2021/08/11 13:23:25;;;;;;;12.57;7.83;;;24.90;56.90;;;;;;6050732;23;20386;-88
2021/08/11 13:26:55;;;;;;;;;;;;;;;;;;;;;
2021/08/11 13:29:48;;;;;;;14.10;7.97;;;25.00;57.40;;;;;;6086214;23;20398;-87
2021/08/11 13:35:55;;;;;;;13.20;8.37;;;24.90;56.90;;;;;;6234250;23;20338;-87
2021/08/11 13:42:25;;;;;;;;;;;;;;;;;;;;;
2021/08/11 13:45:28;;;;;;;12.07;7.90;;;24.90;57.00;;;;;;6234787;23;20347;-86
2021/08/11 13:48:58;;;;;;;11.63;6.77;;;24.90;57.00;;;;;;6210911;23;20481;-86
2021/08/11 13:51:57;;;;;;;13.27;7.80;;;24.90;56.90;;;;;;6199913;23;20378;-87
2021/08/11 13:58:03;;;;;;;9.10;6.70;;;24.90;57.00;;;;;;6187028;23;20440;-87
2021/08/11 14:00:59;;;;;;;11.80;7.80;;;24.90;57.10;;;;;;6184582;23;20382;-88
2021/08/11 14:03:46;;;;;;;13.30;7.77;;;24.90;57.00;;;;;;6211216;23;20382;-87
2021/08/11 14:09:44;;;;;;;;;;;;;;;;;;;;;
2021/08/11 14:12:47;;;;;;;;;;;;;;;;;;;;;
2021/08/11 14:15:54;;;;;;;;;;;;;;;;;;;;;
2021/08/11 14:22:24;;;;;;;;;;;;;;;;;;;;;
2021/08/11 14:25:57;;;;;;;;;;;;;;;;;;;;;
2021/08/11 14:29:13;;;;;;;;;;;;;;;;;;;;;
2021/08/11 14:45:05;;;;;;;10.17;6.50;;;24.90;57.10;;;;;;5860622;24;20457;-88
2021/08/11 14:47:34;;;;;;;14.37;7.70;;;24.90;57.10;;;;;;5888180;24;20437;-88
2021/08/11 16:40:07;;;;;;;7.00;4.87;;;24.80;57.30;;;;;;5834346;24;20982;-86
2021/08/11 16:42:39;;;;;;;7.97;4.83;;;24.80;57.30;;;;;;5833655;24;20390;-86
2021/08/11 16:45:11;;;;;;;5.87;5.10;;;24.80;57.40;;;;;;5811710;24;20394;-86
2021/08/11 16:47:37;;;;;;;9.13;5.10;;;24.80;57.30;;;;;;5810585;24;20988;-86
2021/08/11 16:50:17;;;;;;;5.60;4.73;;;24.80;57.30;;;;;;5778198;24;20391;-85
2021/08/11 16:52:45;;;;;;;8.23;5.30;;;24.80;57.20;;;;;;5833425;24;20415;-86
2021/08/11 16:55:14;;;;;;;7.50;5.23;;;24.80;57.30;;;;;;5833015;24;20398;-86
2021/08/11 17:01:45;;;;;;;;;;;;;;;;;;;;;
2021/08/11 17:04:11;;;;;;;7.70;5.50;;;24.80;57.30;;;;;;5860027;24;20732;-85
2021/08/11 17:07:03;;;;;;;9.10;4.87;;;24.90;57.30;;;;;;5861247;24;20401;-85
2021/08/11 17:09:41;;;;;;;6.53;5.07;;;24.90;57.30;;;;;;5848028;24;20163;-85
2021/08/11 17:12:08;;;;;;;6.50;5.50;;;24.90;57.30;;;;;;5852752;23;20389;-86
2021/08/11 17:21:07;;;;;;;8.00;5.50;;;24.90;57.30;;;;;;6002543;23;20526;-86
2021/08/11 17:23:41;;;;;;;8.90;5.90;;;24.80;57.30;;;;;;5970890;24;20425;-86
2021/08/11 17:26:17;;;;;;;10.40;5.60;;;24.80;57.30;;;;;;5971442;24;20397;-86
2021/08/11 17:28:52;;;;;;;6.07;5.13;;;24.90;57.30;;;;;;5949733;24;20452;-86
2021/08/11 17:31:25;;;;;;;7.30;4.80;;;24.90;57.30;;;;;;5994477;24;20373;-86
2021/08/11 17:37:20;;;;;;;9.00;5.80;;;24.90;57.30;;;;;;6052323;23;20391;-86
2021/08/11 17:39:49;;;;;;;6.30;4.10;;;24.90;57.30;;;;;;6167107;23;20387;-86
2021/08/11 17:42:16;;;;;;;5.57;4.37;;;24.90;57.30;;;;;;6142395;23;20392;-86
2021/08/11 17:45:14;;;;;;;;;;;;;;;;;;;;;
2021/08/11 17:47:49;;;;;;;5.73;4.43;;;24.90;57.30;;;;;;6168186;23;20447;-86
2021/08/11 17:50:32;;;;;;;6.20;4.50;;;24.80;57.30;;;;;;6142881;23;20463;-86
2021/08/11 17:53:00;;;;;;;4.57;3.87;;;24.90;57.30;;;;;;6143210;23;20380;-86
2021/08/11 17:55:37;;;;;;;7.20;5.00;;;24.90;57.30;;;;;;6274230;22;20381;-86
2021/08/11 17:58:15;;;;;;;6.93;4.47;;;24.90;57.30;;;;;;6289578;22;20455;-90
2021/08/11 18:00:53;;;;;;;7.33;5.17;;;24.90;57.30;;;;;;6293335;22;20379;-89
2021/08/11 18:03:29;;;;;;;6.33;4.30;;;24.80;57.20;;;;;;6293373;22;20372;-90
2021/08/11 18:13:00;;;;;;;6.40;3.73;;;24.80;57.30;;;;;;6171091;23;20405;-90
2021/08/11 18:16:11;;;;;;;;;;;;;;;;;;;;;
2021/08/11 18:21:48;;;;;;;;;;;;;;;;;;;;;
2021/08/11 18:24:17;;;;;;;7.07;4.43;;;24.80;57.40;;;;;;6057083;23;20379;-91
2021/08/11 18:33:45;;;;;;;;;;;;;;;;;;;;;
2021/08/11 18:36:19;;;;;;;6.13;4.40;;;24.80;57.40;;;;;;6057467;23;20372;-91
2021/08/11 18:39:02;;;;;;;5.50;4.30;;;24.80;57.40;;;;;;6033256;23;20759;-89
2021/08/11 18:41:39;;;;;;;6.47;4.80;;;24.80;57.40;;;;;;6033206;23;20444;-90
2021/08/11 18:44:06;;;;;;;5.77;5.07;;;24.80;57.30;;;;;;6055878;23;20360;-86
2021/08/11 18:53:26;;;;;;;5.87;4.77;;;24.80;57.40;;;;;;6086468;23;20497;-90
2021/08/11 18:55:53;;;;;;;5.40;4.40;;;24.80;57.40;;;;;;6158159;23;20434;-89
2021/08/11 18:58:21;;;;;;;5.80;4.53;;;24.80;57.40;;;;;;6205027;23;20379;-89
2021/08/11 19:00:53;;;;;;;8.30;4.23;;;24.80;57.40;;;;;;6204055;23;20375;-89
2021/08/11 19:03:19;;;;;;;5.10;4.13;;;24.80;57.40;;;;;;6203558;23;20908;-89
2021/08/11 19:05:48;;;;;;;5.20;4.07;;;24.80;57.40;;;;;;6205573;23;20376;-89
2021/08/11 19:08:22;;;;;;;5.30;4.20;;;24.80;57.30;;;;;;6204658;23;20453;-89
2021/08/11 19:10:52;;;;;;;5.70;3.97;;;24.80;57.30;;;;;;6205275;23;20443;-89
2021/08/11 19:13:18;;;;;;;4.57;3.90;;;24.80;57.30;;;;;;6180134;23;20390;-88
2021/08/11 19:15:47;;;;;;;6.47;4.50;;;24.80;57.30;;;;;;6205101;23;20379;-89
2021/08/11 19:18:18;;;;;;;5.57;4.70;;;24.80;57.30;;;;;;6204262;23;20885;-89
2021/08/11 19:20:48;;;;;;;6.63;3.93;;;24.80;57.30;;;;;;6204413;23;20383;-88
2021/08/11 19:23:23;;;;;;;4.93;4.00;;;24.80;57.30;;;;;;6204428;23;20727;-89
2021/08/11 19:25:52;;;;;;;7.30;4.20;;;24.80;57.40;;;;;;6204444;22;20375;-89
2021/08/11 19:28:26;;;;;;;4.40;3.40;;;24.80;57.30;;;;;;6294633;22;20427;-90
2021/08/11 19:30:52;;;;;;;6.17;4.00;;;24.80;57.20;;;;;;6295987;22;20377;-89
2021/08/11 19:33:28;;;;;;;6.17;4.60;;;24.80;57.30;;;;;;6296081;22;20380;-90
2021/08/11 19:35:59;;;;;;;5.50;4.27;;;24.80;57.20;;;;;;6297234;22;20349;-89
2021/08/11 19:38:34;;;;;;;4.50;3.80;;;24.80;57.30;;;;;;6295445;22;20380;-89
2021/08/11 19:41:05;;;;;;;5.43;4.10;;;24.80;57.20;;;;;;6296032;22;20751;-89
2021/08/11 19:43:34;;;;;;;5.83;3.93;;;24.80;57.30;;;;;;6295453;22;20390;-89
2021/08/11 19:46:04;;;;;;;6.47;4.10;;;24.80;57.30;;;;;;6297218;22;20376;-89
2021/08/11 19:48:32;;;;;;;4.93;4.10;;;24.80;57.30;;;;;;6295483;22;20427;-89
2021/08/11 19:54:32;;;;;;;4.77;3.73;;;24.80;57.30;;;;;;6272872;22;20373;-88
2021/08/11 19:57:03;;;;;;;7.03;4.63;;;24.80;57.30;;;;;;6295762;22;20365;-88
2021/08/11 19:59:31;;;;;;;6.40;4.50;;;24.80;57.30;;;;;;6296270;22;20384;-89
2021/08/11 20:02:00;;;;;;;5.97;4.57;;;24.70;57.20;;;;;;6295953;22;20372;-90
2021/08/11 20:04:37;;;;;;;5.10;3.40;;;24.80;57.30;;;;;;6296351;22;20807;-89
2021/08/11 20:07:04;;;;;;;4.97;3.77;;;24.80;57.90;;;;;;6293106;22;20427;-89
2021/08/11 20:09:30;;;;;;;5.00;4.50;;;24.80;57.30;;;;;;6295304;22;20381;-89
2021/08/11 20:12:04;;;;;;;4.90;4.40;;;24.80;57.30;;;;;;6296760;22;20169;-89
2021/08/11 20:14:33;;;;;;;6.60;3.90;;;24.80;57.30;;;;;;6295541;22;20387;-89
2021/08/11 20:16:59;;;;;;;6.30;4.13;;;24.80;57.30;;;;;;6295487;22;20383;-89
2021/08/11 20:19:25;;;;;;;6.73;4.10;;;24.80;57.30;;;;;;6296158;22;20387;-89
2021/08/11 20:22:18;;;;;;;5.80;4.37;;;24.80;57.30;;;;;;6294740;22;20392;-89
2021/08/11 20:24:45;;;;;;;5.47;4.10;;;24.80;57.30;;;;;;6295416;22;20156;-89
2021/08/11 20:27:11;;;;;;;4.90;4.40;;;24.70;57.30;;;;;;6286778;22;20417;-89
2021/08/11 20:29:38;;;;;;;4.67;3.73;;;24.70;57.30;;;;;;6238996;23;20366;-89
2021/08/11 20:32:04;;;;;;;4.50;4.00;;;24.70;57.30;;;;;;6237616;23;20374;-90
2021/08/11 20:34:50;;;;;;;5.53;3.93;;;24.70;57.20;;;;;;6238644;23;21001;-89
2021/08/11 20:37:16;;;;;;;4.20;3.80;;;24.80;57.30;;;;;;6264096;23;20381;-89
2021/08/11 20:39:42;;;;;;;6.00;4.37;;;24.70;57.30;;;;;;6264832;23;20416;-89
2021/08/11 20:42:08;;;;;;;5.40;4.40;;;24.80;57.30;;;;;;6239098;23;20169;-89
2021/08/11 20:44:34;;;;;;;4.63;4.13;;;24.80;57.30;;;;;;6238477;23;20385;-89
2021/08/11 20:47:00;;;;;;;8.17;4.60;;;24.70;57.30;;;;;;6238242;23;20212;-89
2021/08/11 20:49:27;;;;;;;5.40;3.93;;;24.70;57.30;;;;;;6239432;23;20388;-88
2021/08/11 20:52:04;;;;;;;4.40;3.63;;;24.70;57.30;;;;;;6266285;23;20840;-89
2021/08/11 20:54:39;;;;;;;5.80;3.57;;;24.80;57.40;;;;;;6191345;23;20751;-89
2021/08/11 20:57:05;;;;;;;5.33;4.07;;;24.70;57.30;;;;;;6239013;23;20387;-89
2021/08/11 20:59:42;;;;;;;6.07;4.20;;;24.70;57.30;;;;;;6240614;23;20385;-88
2021/08/11 21:02:29;;;;;;;;;;;;;;;;;;;;;
2021/08/11 21:04:56;;;;;;;4.87;4.17;;;24.80;57.40;;;;;;6243808;23;20354;-88
2021/08/11 21:07:29;;;;;;;4.27;3.73;;;24.70;57.40;;;;;;6240053;23;20417;-88
2021/08/11 21:09:59;;;;;;;5.90;4.00;;;24.80;57.40;;;;;;6240120;23;20410;-88
2021/08/11 21:12:58;;;;;;;5.47;4.20;;;24.70;57.40;;;;;;6240285;23;20707;-88
2021/08/11 21:19:26;;;;;;;4.70;3.77;;;24.70;57.40;;;;;;6145502;23;20407;-88
2021/08/11 21:21:52;;;;;;;6.13;4.20;;;24.70;57.40;;;;;;6144771;23;20369;-88
2021/08/11 21:24:19;;;;;;;4.13;3.40;;;24.60;57.40;;;;;;6096730;23;20454;-88
2021/08/11 21:26:45;;;;;;;4.77;3.63;;;24.60;57.40;;;;;;6095095;23;20389;-88
2021/08/11 21:35:57;;;;;;;4.27;3.40;;;24.70;57.50;;;;;;5999758;23;20408;-88
2021/08/11 21:38:25;;;;;;;5.30;4.30;;;24.60;57.40;;;;;;6000660;24;20836;-88
2021/08/11 21:40:54;;;;;;;5.17;4.20;;;24.60;57.40;;;;;;6001104;24;20377;-87
2021/08/11 21:53:12;;;;;;;4.30;3.60;;;24.60;57.30;;;;;;5979367;24;20377;-90
2021/08/11 21:59:01;;;;;;;5.93;3.63;;;24.60;57.40;;;;;;5972734;23;20238;-89
2021/08/11 22:01:28;;;;;;;4.00;3.60;;;24.60;57.40;;;;;;5949912;24;20386;-90
2021/08/11 22:03:54;;;;;;;3.90;3.50;;;24.60;57.40;;;;;;5950208;24;20386;-90
2021/08/11 22:06:20;;;;;;;4.07;3.63;;;24.60;57.40;;;;;;5960995;24;20768;-89
2021/08/11 22:08:48;;;;;;;5.50;3.60;;;24.60;57.40;;;;;;6021577;23;20191;-89
2021/08/11 22:11:16;;;;;;;4.23;3.33;;;24.60;57.40;;;;;;6033025;23;20392;-90
2021/08/11 22:13:42;;;;;;;5.53;3.80;;;24.70;57.40;;;;;;6057516;23;20155;-90
2021/08/11 22:16:08;;;;;;;3.93;3.33;;;24.70;57.40;;;;;;6068004;23;20378;-89
2021/08/11 22:18:35;;;;;;;5.47;3.90;;;24.70;57.30;;;;;;6114861;23;20373;-90
2021/08/11 22:21:34;;;;;;;3.90;3.07;;;24.70;57.30;;;;;;6063080;23;20406;-89
2021/08/11 22:24:01;;;;;;;3.53;3.07;;;24.70;57.30;;;;;;6087215;23;20389;-89
2021/08/11 22:30:00;;;;;;;4.00;3.60;;;24.70;57.20;;;;;;6204248;23;20483;-88
2021/08/11 22:33:08;;;;;;;;;;;;;;;;;;;;;
2021/08/11 22:35:35;;;;;;;5.07;3.90;;;24.70;57.30;;;;;;6205223;23;20406;-88
2021/08/11 22:38:02;;;;;;;4.50;3.50;;;24.70;57.30;;;;;;6205685;23;20394;-88
2021/08/11 22:40:35;;;;;;;6.03;3.60;;;24.70;57.30;;;;;;6180900;23;20418;-88
2021/08/11 22:43:01;;;;;;;3.10;2.80;;;24.80;57.30;;;;;;6181203;23;20383;-88
2021/08/11 22:45:27;;;;;;;3.90;3.17;;;24.70;57.20;;;;;;6180694;23;20469;-88
2021/08/11 22:48:24;;;;;;;4.00;3.60;;;24.70;57.20;;;;;;6205848;23;20445;-88
2021/08/11 22:50:49;;;;;;;5.00;3.47;;;24.80;57.20;;;;;;6179757;23;20402;-87
2021/08/11 22:53:30;;;;;;;3.70;3.23;;;24.80;57.30;;;;;;6205186;23;20403;-88
2021/08/11 22:55:59;;;;;;;4.00;3.60;;;24.80;57.20;;;;;;6180382;23;20379;-88
2021/08/11 23:05:11;;;;;;;3.40;2.93;;;24.80;57.20;;;;;;6145201;23;20368;-88
2021/08/11 23:07:40;;;;;;;3.80;3.00;;;24.80;57.30;;;;;;6146319;23;20480;-88
2021/08/11 23:10:08;;;;;;;4.10;3.70;;;24.80;57.20;;;;;;6120947;23;20385;-88
2021/08/11 23:12:37;;;;;;;4.87;3.40;;;24.80;57.20;;;;;;6145637;23;20381;-88
2021/08/11 23:15:06;;;;;;;3.63;3.30;;;24.80;57.20;;;;;;6121246;23;20381;-88
2021/08/11 23:17:34;;;;;;;3.80;3.20;;;24.80;57.10;;;;;;6121477;23;20389;-87
2021/08/11 23:20:01;;;;;;;4.63;3.23;;;24.90;57.20;;;;;;6096670;23;20469;-88
2021/08/11 23:22:28;;;;;;;4.43;3.80;;;24.80;57.10;;;;;;6120702;23;20392;-88
2021/08/11 23:25:17;;;;;;;4.43;4.03;;;24.80;57.10;;;;;;6122456;23;20391;-87
2021/08/11 23:27:45;;;;;;;4.90;3.87;;;24.90;57.20;;;;;;6144584;23;20500;-88
2021/08/11 23:30:13;;;;;;;4.53;3.63;;;24.90;57.20;;;;;;6146319;23;20401;-88
2021/08/11 23:32:39;;;;;;;3.97;3.60;;;24.80;57.10;;;;;;6121525;23;20397;-88
2021/08/11 23:35:06;;;;;;;3.50;3.20;;;24.90;57.20;;;;;;6121274;23;20389;-88
2021/08/11 23:37:36;;;;;;;3.57;3.00;;;24.90;57.20;;;;;;6138944;23;20384;-88
2021/08/11 23:40:04;;;;;;;4.10;3.80;;;24.80;57.00;;;;;;6266667;23;20421;-87
2021/08/11 23:42:33;;;;;;;4.93;4.37;;;24.90;57.20;;;;;;6266652;23;20389;-88
2021/08/11 23:45:03;;;;;;;5.23;4.13;;;24.90;57.70;;;;;;6266410;23;20396;-88
2021/08/11 23:47:32;;;;;;;4.83;3.93;;;24.90;57.10;;;;;;6265748;23;20421;-88
2021/08/11 23:50:02;;;;;;;4.10;3.70;;;24.90;57.10;;;;;;6266460;23;20378;-88
2021/08/11 23:52:31;;;;;;;3.57;3.27;;;24.90;57.20;;;;;;6265435;23;20384;-88
2021/08/11 23:58:19;;;;;;;4.60;3.40;;;24.90;57.10;;;;;;6268031;23;20392;-88
